createdAt,value
2022-08-28T00:01:32.633Z,18.13
2022-08-28T00:03:35.227Z,23.38
2022-08-28T00:05:39.597Z,23.65
2022-08-28T00:07:45.534Z,20.35
2022-08-28T00:09:49.183Z,19.25
2022-08-28T00:11:50.820Z,18.50
2022-08-28T00:13:52.587Z,19.27
2022-08-28T00:15:58.235Z,19.38
2022-08-28T00:18:00.966Z,20.83
2022-08-28T00:20:03.302Z,21.20
2022-08-28T00:22:04.910Z,18.67
2022-08-28T00:24:06.766Z,18.40
2022-08-28T00:26:08.358Z,22.42
2022-08-28T00:28:18.425Z,25.52
2022-08-28T00:30:29.863Z,18.83
2022-08-28T00:32:31.450Z,18.38
2022-08-28T00:34:33.783Z,23.38
2022-08-28T00:36:37.169Z,18.65
2022-08-28T00:38:38.708Z,18.48
2022-08-28T00:40:44.570Z,19.27
2022-08-28T00:42:47.209Z,24.02
2022-08-28T00:44:48.779Z,18.80
2022-08-28T00:46:53.586Z,19.58
2022-08-28T00:48:55.171Z,18.70
2022-08-28T00:51:15.963Z,20.63
2022-08-28T00:53:17.919Z,18.35
2022-08-28T00:55:22.565Z,22.15
2022-08-28T00:57:30.002Z,19.70
2022-08-28T00:59:31.562Z,29.02
2022-08-28T01:01:33.285Z,28.52
2022-08-28T01:03:36.641Z,17.00
2022-08-28T01:05:39.818Z,18.17
2022-08-28T01:07:42.041Z,23.05
2022-08-28T01:09:47.760Z,21.38
2022-08-28T01:11:52.775Z,17.10
2022-08-28T01:13:56.865Z,16.05
2022-08-28T01:16:04.067Z,18.60
2022-08-28T01:18:08.607Z,18.60
2022-08-28T01:20:14.694Z,17.77
2022-08-28T01:22:23.984Z,18.05
2022-08-28T01:24:25.867Z,21.73
2022-08-28T01:26:28.821Z,19.45
2022-08-28T01:28:30.384Z,18.98
2022-08-28T01:30:33.371Z,18.33
2022-08-28T01:32:38.626Z,20.55
2022-08-28T01:34:40.500Z,20.10
2022-08-28T01:36:42.899Z,21.95
2022-08-28T01:38:47.902Z,17.30
2022-08-28T01:40:53.402Z,17.23
2022-08-28T01:42:55.913Z,16.85
2022-08-28T01:44:57.521Z,22.58
2022-08-28T01:46:59.179Z,18.73
2022-08-28T01:49:00.805Z,20.77
2022-08-28T01:51:05.252Z,19.90
2022-08-28T01:53:07.942Z,21.50
2022-08-28T01:55:14.294Z,26.45
2022-08-28T01:57:15.828Z,22.60
2022-08-28T01:59:19.076Z,22.30
2022-08-28T02:01:21.804Z,22.48
2022-08-28T02:03:23.856Z,19.55
2022-08-28T02:05:28.339Z,21.17
2022-08-28T02:07:29.899Z,25.50
2022-08-28T02:09:32.018Z,21.02
2022-08-28T02:11:33.604Z,24.70
2022-08-28T02:13:36.784Z,24.75
2022-08-28T02:15:40.700Z,26.73
2022-08-28T02:17:42.330Z,23.10
2022-08-28T02:19:43.990Z,23.35
2022-08-28T02:21:45.544Z,23.52
2022-08-28T02:23:47.342Z,25.05
2022-08-28T02:25:49.896Z,25.67
2022-08-28T02:27:52.626Z,22.60
2022-08-28T02:29:55.520Z,22.17
2022-08-28T02:31:57.137Z,26.95
2022-08-28T02:33:58.726Z,25.13
2022-08-28T02:36:00.289Z,28.17
2022-08-28T02:38:01.872Z,20.83
2022-08-28T02:40:04.555Z,22.80
2022-08-28T02:42:06.749Z,22.30
2022-08-28T02:44:08.297Z,24.88
2022-08-28T02:46:10.155Z,27.23
2022-08-28T02:48:17.227Z,25.45
2022-08-28T02:50:20.085Z,28.23
2022-08-28T02:52:22.561Z,26.67
2022-08-28T02:54:26.389Z,25.02
2022-08-28T02:56:28.296Z,21.02
2022-08-28T02:58:32.320Z,25.88
2022-08-28T03:00:33.899Z,22.70
2022-08-28T03:02:36.655Z,24.27
2022-08-28T03:04:38.331Z,24.58
2022-08-28T03:06:39.877Z,24.00
2022-08-28T03:08:42.882Z,21.63
2022-08-28T03:10:44.440Z,20.00
2022-08-28T03:12:48.189Z,20.75
2022-08-28T03:14:51.690Z,24.75
2022-08-28T03:16:53.402Z,23.83
2022-08-28T03:18:55.021Z,26.05
2022-08-28T03:20:57.082Z,27.35
2022-08-28T03:23:17.039Z,25.13
2022-08-28T03:27:20.157Z,24.63
2022-08-28T03:29:21.747Z,32.08
2022-08-28T03:31:25.340Z,25.30
2022-08-28T03:33:27.481Z,26.67
2022-08-28T03:35:29.205Z,27.13
2022-08-28T03:37:31.399Z,30.63
2022-08-28T03:39:32.954Z,36.22
2022-08-28T03:41:34.573Z,31.83
2022-08-28T03:43:36.135Z,26.05
2022-08-28T03:45:38.393Z,29.42
2022-08-28T03:47:41.903Z,28.52
2022-08-28T03:49:45.462Z,29.20
2022-08-28T03:51:47.192Z,27.08
2022-08-28T03:53:49.316Z,24.92
2022-08-28T03:55:51.308Z,23.98
2022-08-28T03:57:53.188Z,28.65
2022-08-28T03:59:54.794Z,24.77
2022-08-28T04:01:56.351Z,25.48
2022-08-28T04:03:58.136Z,26.98
2022-08-28T04:05:59.774Z,22.05
2022-08-28T04:08:02.957Z,20.48
2022-08-28T04:10:04.965Z,23.70
2022-08-28T04:12:08.376Z,23.67
2022-08-28T04:14:10.592Z,25.35
2022-08-28T04:16:14.060Z,20.10
2022-08-28T04:18:15.850Z,16.33
2022-08-28T04:20:17.636Z,19.33
2022-08-28T04:22:19.222Z,18.27
2022-08-28T04:24:20.867Z,19.88
2022-08-28T04:26:24.213Z,22.52
2022-08-28T04:28:26.011Z,24.77
2022-08-28T04:30:27.583Z,22.65
2022-08-28T04:32:29.146Z,23.70
2022-08-28T04:34:30.727Z,18.33
2022-08-28T04:36:33.817Z,23.67
2022-08-28T04:38:38.332Z,22.17
2022-08-28T04:40:43.259Z,22.40
2022-08-28T04:42:45.247Z,21.52
2022-08-28T04:44:46.893Z,19.38
2022-08-28T04:46:48.464Z,18.63
2022-08-28T04:48:50.166Z,20.23
2022-08-28T04:50:51.768Z,15.57
2022-08-28T04:52:53.836Z,16.45
2022-08-28T04:54:55.849Z,16.42
2022-08-28T04:56:57.410Z,18.65
2022-08-28T04:59:00.679Z,17.17
2022-08-28T05:01:12.781Z,16.27
2022-08-28T05:03:16.414Z,11.80
2022-08-28T05:05:19.146Z,11.75
2022-08-28T05:07:23.431Z,12.07
2022-08-28T05:09:25.081Z,12.25
2022-08-28T05:11:33.519Z,12.48
2022-08-28T05:13:36.308Z,14.82
2022-08-28T05:15:42.501Z,14.20
2022-08-28T05:17:44.185Z,16.67
2022-08-28T05:19:45.808Z,19.95
2022-08-28T05:21:47.983Z,16.02
2022-08-28T05:23:51.412Z,17.38
2022-08-28T05:25:53.526Z,19.05
2022-08-28T05:27:55.542Z,17.80
2022-08-28T05:30:01.602Z,18.38
2022-08-28T05:32:04.153Z,16.17
2022-08-28T05:34:06.912Z,17.05
2022-08-28T05:36:09.067Z,17.67
2022-08-28T05:38:11.737Z,16.48
2022-08-28T05:40:13.640Z,19.85
2022-08-28T05:42:15.235Z,15.75
2022-08-28T05:44:17.788Z,20.02
2022-08-28T05:46:20.749Z,17.95
2022-08-28T05:48:22.329Z,17.90
2022-08-28T05:50:23.910Z,16.70
2022-08-28T05:52:25.881Z,18.10
2022-08-28T05:54:29.083Z,20.30
2022-08-28T05:56:34.068Z,18.70
2022-08-28T05:58:35.740Z,23.58
2022-08-28T06:00:37.305Z,19.98
2022-08-28T06:02:39.541Z,19.27
2022-08-28T06:04:41.136Z,20.17
2022-08-28T06:06:42.974Z,19.02
2022-08-28T06:08:58.308Z,21.95
2022-08-28T06:11:03.747Z,19.10
2022-08-28T06:13:05.710Z,20.75
2022-08-28T06:15:08.673Z,19.83
2022-08-28T06:17:10.256Z,19.55
2022-08-28T06:19:12.518Z,18.63
2022-08-28T06:21:14.268Z,20.88
2022-08-28T06:23:24.235Z,17.23
2022-08-28T06:25:26.005Z,18.58
2022-08-28T06:27:27.590Z,15.30
2022-08-28T06:29:29.561Z,19.52
2022-08-28T06:31:33.383Z,19.15
2022-08-28T06:33:35.455Z,11.45
2022-08-28T06:35:44.064Z,12.20
2022-08-28T06:37:45.910Z,15.10
2022-08-28T06:39:47.444Z,13.65
2022-08-28T06:41:49.145Z,13.80
2022-08-28T06:43:50.719Z,11.60
2022-08-28T06:45:54.616Z,10.13
2022-08-28T06:47:56.257Z,12.73
2022-08-28T06:49:58.360Z,12.52
2022-08-28T06:52:00.015Z,12.48
2022-08-28T06:54:01.998Z,10.25
2022-08-28T06:56:25.549Z,10.52
2022-08-28T06:58:29.216Z,10.90
2022-08-28T07:00:31.130Z,12.77
2022-08-28T07:02:32.735Z,10.50
2022-08-28T07:04:34.380Z,11.60
2022-08-28T07:06:41.344Z,15.25
2022-08-28T07:08:43.906Z,10.40
2022-08-28T07:10:45.754Z,8.38
2022-08-28T07:12:50.249Z,8.73
2022-08-28T07:14:51.796Z,9.80
2022-08-28T07:16:53.351Z,8.32
2022-08-28T07:18:54.931Z,10.32
2022-08-28T07:20:57.732Z,8.80
2022-08-28T07:22:59.781Z,8.75
2022-08-28T07:25:01.456Z,5.50
2022-08-28T07:27:03.087Z,12.10
2022-08-28T07:29:10.016Z,9.52
2022-08-28T07:31:19.209Z,7.90
2022-08-28T07:33:20.827Z,8.13
2022-08-28T07:35:22.735Z,7.10
2022-08-28T07:37:24.347Z,11.20
2022-08-28T07:39:25.878Z,9.82
2022-08-28T07:41:30.420Z,9.70
2022-08-28T07:43:50.618Z,12.90
2022-08-28T07:46:03.899Z,8.43
2022-08-28T07:48:11.933Z,7.95
2022-08-28T07:50:15.231Z,13.65
2022-08-28T07:52:16.823Z,9.20
2022-08-28T07:54:18.474Z,10.57
2022-08-28T07:56:20.945Z,9.00
2022-08-28T07:58:25.449Z,10.75
2022-08-28T08:00:27.049Z,10.65
2022-08-28T08:02:30.037Z,12.07
2022-08-28T08:04:31.633Z,7.97
2022-08-28T08:06:34.609Z,10.68
2022-08-28T08:08:37.405Z,9.93
2022-08-28T08:10:38.957Z,12.88
2022-08-28T08:12:42.781Z,10.30
2022-08-28T08:14:44.615Z,11.05
2022-08-28T08:16:47.543Z,7.90
2022-08-28T08:18:49.619Z,10.40
2022-08-28T08:20:51.867Z,8.77
2022-08-28T08:22:53.430Z,10.13
2022-08-28T08:24:55.340Z,7.13
2022-08-28T08:27:00.906Z,11.73
2022-08-28T08:29:02.657Z,9.05
2022-08-28T08:31:18.278Z,9.40
2022-08-28T08:33:20.311Z,15.00
2022-08-28T08:35:21.885Z,8.93
2022-08-28T08:37:23.487Z,7.63
2022-08-28T08:39:25.126Z,6.50
2022-08-28T08:41:48.457Z,7.10
2022-08-28T08:43:57.807Z,7.43
2022-08-28T08:45:59.395Z,52.42
2022-08-28T08:48:01.325Z,13.15
2022-08-28T08:50:11.370Z,10.30
2022-08-28T08:52:20.076Z,20.63
2022-08-28T08:54:21.848Z,11.10
2022-08-28T08:56:24.008Z,8.10
2022-08-28T08:58:49.013Z,7.93
2022-08-28T09:00:58.498Z,10.10
2022-08-28T09:05:22.515Z,9.70
2022-08-28T09:07:32.706Z,7.80
2022-08-28T09:09:42.126Z,10.90
2022-08-28T09:12:03.100Z,10.85
2022-08-28T09:14:13.478Z,10.73
2022-08-28T09:16:22.986Z,10.02
2022-08-28T09:20:33.163Z,8.23
2022-08-28T09:22:35.079Z,11.90
2022-08-28T09:24:39.557Z,11.88
2022-08-28T09:26:42.543Z,9.57
2022-08-28T09:28:50.763Z,10.02
2022-08-28T09:31:06.371Z,13.52
2022-08-28T09:33:07.985Z,13.60
2022-08-28T09:35:19.012Z,8.57
2022-08-28T09:37:26.671Z,14.15
2022-08-28T09:39:29.873Z,10.93
2022-08-28T09:41:50.628Z,11.68
2022-08-28T09:43:52.557Z,8.63
2022-08-28T09:46:07.501Z,9.43
2022-08-28T09:48:21.611Z,11.57
2022-08-28T09:50:37.512Z,7.22
2022-08-28T09:52:39.105Z,10.40
2022-08-28T09:54:42.654Z,7.97
2022-08-28T09:56:45.825Z,11.30
2022-08-28T09:58:52.248Z,7.22
2022-08-28T10:01:18.432Z,5.63
2022-08-28T10:03:28.691Z,7.00
2022-08-28T10:05:45.977Z,8.73
2022-08-28T10:07:53.039Z,9.40
2022-08-28T10:10:10.141Z,10.77
2022-08-28T10:12:11.616Z,8.30
2022-08-28T10:14:31.989Z,9.43
2022-08-28T10:16:47.149Z,9.88
2022-08-28T10:19:03.048Z,9.35
2022-08-28T10:21:08.520Z,8.93
2022-08-28T10:23:21.904Z,11.13
2022-08-28T10:25:49.661Z,6.57
2022-08-28T10:28:14.532Z,8.57
2022-08-28T10:30:21.659Z,13.88
2022-08-28T10:32:38.662Z,9.48
2022-08-28T10:34:47.287Z,10.02
2022-08-28T10:37:02.623Z,6.38
2022-08-28T10:39:21.000Z,9.27
2022-08-28T10:41:26.277Z,12.10
2022-08-28T10:43:48.614Z,9.80
2022-08-28T10:45:51.787Z,12.20
2022-08-28T10:47:58.268Z,7.18
2022-08-28T10:50:05.714Z,10.55
2022-08-28T10:52:11.876Z,12.98
2022-08-28T10:54:28.211Z,8.13
2022-08-28T10:56:45.238Z,9.88
2022-08-28T10:59:01.802Z,10.13
2022-08-28T11:01:12.262Z,9.43
2022-08-28T11:03:33.443Z,11.45
2022-08-28T11:05:53.352Z,9.60
2022-08-28T11:07:58.827Z,6.43
2022-08-28T11:10:21.182Z,8.18
2022-08-28T11:12:23.587Z,11.80
2022-08-28T11:14:33.840Z,9.73
2022-08-28T11:16:47.401Z,9.63
2022-08-28T11:19:23.203Z,10.10
2022-08-28T11:21:30.319Z,9.63
2022-08-28T11:24:00.294Z,7.50
2022-08-28T11:26:06.473Z,7.72
2022-08-28T11:28:25.841Z,8.43
2022-08-28T11:30:31.635Z,11.23
2022-08-28T11:32:33.350Z,8.73
2022-08-28T11:34:57.659Z,7.05
2022-08-28T11:37:01.327Z,8.95
2022-08-28T11:39:15.261Z,11.57
2022-08-28T11:41:21.727Z,17.20
2022-08-28T11:43:23.685Z,11.18
2022-08-28T11:45:48.164Z,16.08
2022-08-28T11:47:56.801Z,21.10
2022-08-28T11:50:05.127Z,11.38
2022-08-28T11:52:24.677Z,7.28
2022-08-28T11:57:08.534Z,10.15
2022-08-28T11:59:24.898Z,10.75
2022-08-28T12:01:36.905Z,9.95
2022-08-28T12:03:55.398Z,8.80
2022-08-28T12:05:58.641Z,8.93
2022-08-28T12:08:02.570Z,9.05
2022-08-28T12:10:27.648Z,9.40
2022-08-28T12:12:44.717Z,12.00
2022-08-28T12:14:47.656Z,12.05
2022-08-28T12:16:58.516Z,9.68
2022-08-28T12:19:02.255Z,10.57
2022-08-28T12:21:07.095Z,11.70
2022-08-28T12:23:23.993Z,12.30
2022-08-28T12:25:40.945Z,9.40
2022-08-28T12:27:42.954Z,9.02
2022-08-28T12:29:50.683Z,10.70
2022-08-28T12:32:13.650Z,7.35
2022-08-28T12:34:25.964Z,11.50
2022-08-28T12:36:28.786Z,12.10
2022-08-28T12:38:31.938Z,10.43
2022-08-28T12:40:33.520Z,10.30
2022-08-28T12:42:38.707Z,13.93
2022-08-28T12:44:40.264Z,10.93
2022-08-28T12:46:45.691Z,12.98
2022-08-28T12:48:56.296Z,10.27
2022-08-28T12:51:03.034Z,11.05
2022-08-28T12:53:10.517Z,14.15
2022-08-28T12:55:12.092Z,12.55
2022-08-28T12:57:18.612Z,15.60
2022-08-28T12:59:36.258Z,27.83
2022-08-28T13:01:39.054Z,26.08
2022-08-28T13:03:48.078Z,30.98
2022-08-28T13:05:58.494Z,23.70
2022-08-28T13:08:03.856Z,26.90
2022-08-28T13:10:29.979Z,25.98
2022-08-28T13:12:54.671Z,20.38
2022-08-28T13:14:58.919Z,18.52
2022-08-28T13:17:00.665Z,24.83
2022-08-28T13:19:05.250Z,20.02
2022-08-28T13:21:12.693Z,23.98
2022-08-28T13:23:29.548Z,29.02
2022-08-28T13:25:34.833Z,27.35
2022-08-28T13:27:38.453Z,25.63
2022-08-28T13:30:02.634Z,19.92
2022-08-28T13:32:10.253Z,19.88
2022-08-28T13:34:36.256Z,21.63
2022-08-28T13:36:42.086Z,14.80
2022-08-28T13:38:44.183Z,0.38
2022-08-28T13:40:58.493Z,0.05
2022-08-28T13:43:03.882Z,0.20
2022-08-28T13:45:06.406Z,0.95
2022-08-28T13:47:07.988Z,0.28
2022-08-28T13:49:09.517Z,0.57
2022-08-28T13:51:14.293Z,0.45
2022-08-28T13:53:22.587Z,0.10
2022-08-28T13:55:24.294Z,0.43
2022-08-28T13:57:27.926Z,0.63
2022-08-28T13:59:30.718Z,0.10
2022-08-28T14:01:51.939Z,0.00
2022-08-28T14:03:53.618Z,0.65
2022-08-28T14:05:55.233Z,0.08
2022-08-28T14:07:56.818Z,0.28
2022-08-28T14:09:58.482Z,0.20
2022-08-28T14:12:00.826Z,0.00
2022-08-28T14:14:03.366Z,0.70
2022-08-28T14:16:06.381Z,0.70
2022-08-28T14:18:07.970Z,0.10
2022-08-28T14:20:09.915Z,0.15
2022-08-28T14:22:11.488Z,0.25
2022-08-28T14:24:13.320Z,0.00
2022-08-28T14:26:14.870Z,1.13
2022-08-28T14:28:17.089Z,0.28
2022-08-28T14:30:19.235Z,0.38
2022-08-28T14:32:21.311Z,0.05
2022-08-28T14:34:23.141Z,0.20
2022-08-28T14:36:26.914Z,0.03
2022-08-28T14:38:28.458Z,0.10
2022-08-28T14:40:30.175Z,1.55
2022-08-28T14:42:31.949Z,0.20
2022-08-28T14:44:33.746Z,0.00
2022-08-28T14:46:36.978Z,0.00
2022-08-28T14:48:38.537Z,0.30
2022-08-28T14:50:42.049Z,0.00
2022-08-28T14:52:43.622Z,0.40
2022-08-28T14:54:45.557Z,0.05
2022-08-28T14:56:47.757Z,0.52
2022-08-28T14:58:49.388Z,1.25
2022-08-28T15:00:51.204Z,0.50
2022-08-28T15:02:55.354Z,0.32
2022-08-28T15:05:01.528Z,3.03
2022-08-28T15:07:06.503Z,2.58
2022-08-28T15:09:09.685Z,0.50
2022-08-28T15:11:18.620Z,0.17
2022-08-28T15:13:20.443Z,0.75
2022-08-28T15:15:23.859Z,0.05
2022-08-28T15:17:33.676Z,0.10
2022-08-28T15:19:36.372Z,0.03
2022-08-28T15:21:41.452Z,0.30
2022-08-28T15:23:43.389Z,0.25
2022-08-28T15:25:44.945Z,0.35
2022-08-28T15:27:46.547Z,0.47
2022-08-28T15:29:48.159Z,0.38
2022-08-28T15:31:50.750Z,0.55
2022-08-28T15:33:52.677Z,0.38
2022-08-28T15:35:57.390Z,0.20
2022-08-28T15:37:58.945Z,0.10
2022-08-28T15:40:20.913Z,0.77
2022-08-28T15:42:23.322Z,7.65
2022-08-28T15:44:25.018Z,0.40
2022-08-28T15:46:29.190Z,0.88
2022-08-28T15:48:32.072Z,0.08
2022-08-28T15:50:35.531Z,0.17
2022-08-28T15:52:38.693Z,0.03
2022-08-28T15:54:40.451Z,0.00
2022-08-28T15:56:42.082Z,0.15
2022-08-28T15:58:44.505Z,0.00
2022-08-28T16:00:46.572Z,0.52
2022-08-28T16:02:48.245Z,0.88
2022-08-28T16:04:50.273Z,1.02
2022-08-28T16:06:58.565Z,0.85
2022-08-28T16:09:03.530Z,0.30
2022-08-28T16:11:05.304Z,1.08
2022-08-28T16:13:07.005Z,0.43
2022-08-28T16:15:09.408Z,0.25
2022-08-28T16:17:11.561Z,0.17
2022-08-28T16:19:13.267Z,0.32
2022-08-28T16:21:15.147Z,1.30
2022-08-28T16:23:17.174Z,1.40
2022-08-28T16:25:18.861Z,0.77
2022-08-28T16:27:21.412Z,0.30
2022-08-28T16:29:23.033Z,0.22
2022-08-28T16:31:25.366Z,0.30
2022-08-28T16:33:28.156Z,0.20
2022-08-28T16:35:29.806Z,0.10
2022-08-28T16:37:37.715Z,0.30
2022-08-28T16:39:41.876Z,0.93
2022-08-28T16:41:49.646Z,1.13
2022-08-28T16:43:52.118Z,0.60
2022-08-28T16:45:54.033Z,0.55
2022-08-28T16:47:55.696Z,0.00
2022-08-28T16:50:01.878Z,0.40
2022-08-28T16:52:03.592Z,4.95
2022-08-28T16:54:05.301Z,0.20
2022-08-28T16:56:08.996Z,0.43
2022-08-28T16:58:14.979Z,0.55
2022-08-28T17:00:18.981Z,2.90
2022-08-28T17:02:26.300Z,0.35
2022-08-28T17:04:28.322Z,0.30
2022-08-28T17:06:31.740Z,5.78
2022-08-28T17:08:33.328Z,1.33
2022-08-28T17:10:35.645Z,1.20
2022-08-28T17:12:37.282Z,0.15
2022-08-28T17:14:39.274Z,0.50
2022-08-28T17:16:40.910Z,0.35
2022-08-28T17:18:48.335Z,2.50
2022-08-28T17:21:12.505Z,5.45
2022-08-28T17:23:15.210Z,0.30
2022-08-28T17:25:16.789Z,0.00
2022-08-28T17:27:22.605Z,1.35
2022-08-28T17:29:24.957Z,1.48
2022-08-28T17:31:26.619Z,0.45
2022-08-28T17:33:28.297Z,1.58
2022-08-28T17:35:29.890Z,0.08
2022-08-28T17:37:31.847Z,0.17
2022-08-28T17:39:33.488Z,1.25
2022-08-28T17:41:35.520Z,0.05
2022-08-28T17:43:38.327Z,1.25
2022-08-28T17:45:39.895Z,12.43
2022-08-28T17:47:42.223Z,0.10
2022-08-28T17:49:44.554Z,0.15
2022-08-28T17:51:46.130Z,0.85
2022-08-28T17:53:47.735Z,0.13
2022-08-28T17:55:49.481Z,0.28
2022-08-28T17:57:51.043Z,1.95
2022-08-28T17:59:52.653Z,0.00
2022-08-28T18:01:54.454Z,0.15
2022-08-28T18:03:56.127Z,0.17
2022-08-28T18:05:58.880Z,0.45
2022-08-28T18:08:00.499Z,1.38
2022-08-28T18:10:02.175Z,0.20
2022-08-28T18:12:04.190Z,0.30
2022-08-28T18:14:06.840Z,1.23
2022-08-28T18:16:09.079Z,0.20
2022-08-28T18:18:13.462Z,0.08
2022-08-28T18:20:15.192Z,3.50
2022-08-28T18:22:16.857Z,0.03
2022-08-28T18:24:18.451Z,0.10
2022-08-28T18:26:20.251Z,0.30
2022-08-28T18:28:23.964Z,0.30
2022-08-28T18:30:25.752Z,0.00
2022-08-28T18:32:27.333Z,0.17
2022-08-28T18:34:30.587Z,0.88
2022-08-28T18:36:32.225Z,0.35
2022-08-28T18:38:35.671Z,0.13
2022-08-28T18:40:37.514Z,0.00
2022-08-28T18:42:40.043Z,0.05
2022-08-28T18:44:41.618Z,2.65
2022-08-28T18:46:44.040Z,1.45
2022-08-28T18:48:45.853Z,0.15
2022-08-28T18:50:48.397Z,0.35
2022-08-28T18:52:50.540Z,0.10
2022-08-28T18:54:52.365Z,0.38
2022-08-28T18:57:04.206Z,0.40
2022-08-28T18:59:06.824Z,0.00
2022-08-28T19:01:09.412Z,0.00
2022-08-28T19:03:11.383Z,0.10
2022-08-28T19:05:13.518Z,0.28
2022-08-28T19:07:15.146Z,0.05
2022-08-28T19:09:20.505Z,0.68
2022-08-28T19:11:22.698Z,0.10
2022-08-28T19:13:24.256Z,0.75
2022-08-28T19:15:25.788Z,0.00
2022-08-28T19:17:27.862Z,0.13
2022-08-28T19:19:33.100Z,0.13
2022-08-28T19:21:35.258Z,0.08
2022-08-28T19:23:38.486Z,0.70
2022-08-28T19:25:42.430Z,0.40
2022-08-28T19:27:44.261Z,1.70
2022-08-28T19:29:45.818Z,0.38
2022-08-28T19:31:47.400Z,0.32
2022-08-28T19:33:49.520Z,0.00
2022-08-28T19:35:51.829Z,0.40
2022-08-28T19:37:53.506Z,0.00
2022-08-28T19:39:56.179Z,0.13
2022-08-28T19:41:58.658Z,0.30
2022-08-28T19:44:00.272Z,0.05
2022-08-28T19:46:01.952Z,0.47
2022-08-28T19:48:03.803Z,0.60
2022-08-28T19:50:08.420Z,0.43
2022-08-28T19:52:10.029Z,0.43
2022-08-28T19:54:14.177Z,0.20
2022-08-28T19:56:16.058Z,0.00
2022-08-28T19:58:17.633Z,0.00
2022-08-28T20:00:23.283Z,0.30
2022-08-28T20:02:24.947Z,1.42
2022-08-28T20:04:26.546Z,0.20
2022-08-28T20:06:30.316Z,1.05
2022-08-28T20:08:31.986Z,1.55
2022-08-28T20:10:33.646Z,0.15
2022-08-28T20:12:35.779Z,0.10
2022-08-28T20:14:41.452Z,0.65
2022-08-28T20:16:44.705Z,1.25
2022-08-28T20:18:46.233Z,0.28
2022-08-28T20:20:49.408Z,1.98
2022-08-28T20:22:53.886Z,2.55
2022-08-28T20:24:55.828Z,1.33
2022-08-28T20:26:57.449Z,0.80
2022-08-28T20:28:59.081Z,6.72
2022-08-28T20:31:01.408Z,0.52
2022-08-28T20:33:03.010Z,1.40
2022-08-28T20:35:09.039Z,1.40
2022-08-28T20:37:11.394Z,0.65
2022-08-28T20:39:13.181Z,0.95
2022-08-28T20:41:18.363Z,0.03
2022-08-28T20:43:19.892Z,0.05
2022-08-28T20:45:22.112Z,1.40
2022-08-28T20:47:23.758Z,2.85
2022-08-28T20:49:25.332Z,0.88
2022-08-28T20:51:45.577Z,1.55
2022-08-28T20:53:47.157Z,0.63
2022-08-28T20:55:49.060Z,3.95
2022-08-28T20:57:51.110Z,0.98
2022-08-28T20:59:54.105Z,1.65
2022-08-28T21:02:00.550Z,1.25
2022-08-28T21:04:02.570Z,0.55
2022-08-28T21:06:04.310Z,2.72
2022-08-28T21:08:07.417Z,0.63
2022-08-28T21:10:14.092Z,0.93
2022-08-28T21:12:16.668Z,1.08
2022-08-28T21:14:19.041Z,0.68
2022-08-28T21:16:20.680Z,0.20
2022-08-28T21:18:22.354Z,0.60
2022-08-28T21:20:26.319Z,0.70
2022-08-28T21:22:31.556Z,1.45
2022-08-28T21:24:33.200Z,1.02
2022-08-28T21:26:37.308Z,0.68
2022-08-28T21:28:39.323Z,0.17
2022-08-28T21:30:41.621Z,0.65
2022-08-28T21:32:43.875Z,0.35
2022-08-28T21:34:45.431Z,0.55
2022-08-28T21:36:50.588Z,2.05
2022-08-28T21:38:52.915Z,4.10
2022-08-28T21:40:54.523Z,0.68
2022-08-28T21:42:56.103Z,0.40
2022-08-28T21:44:57.725Z,2.83
2022-08-28T21:47:00.540Z,2.85
2022-08-28T21:49:02.162Z,0.63
2022-08-28T21:51:13.074Z,2.40
2022-08-28T21:53:14.624Z,0.20
2022-08-28T21:55:17.519Z,1.90
2022-08-28T21:57:19.088Z,0.08
2022-08-28T21:59:21.441Z,0.15
2022-08-28T22:01:26.544Z,0.52
2022-08-28T22:03:29.376Z,0.38
2022-08-28T22:05:30.986Z,0.57
2022-08-28T22:07:32.572Z,8.95
2022-08-28T22:09:34.187Z,0.20
2022-08-28T22:11:35.845Z,0.40
2022-08-28T22:13:37.957Z,0.17
2022-08-28T22:15:41.406Z,0.75
2022-08-28T22:17:42.969Z,0.10
2022-08-28T22:19:46.616Z,1.17
2022-08-28T22:22:06.916Z,1.10
2022-08-28T22:24:09.057Z,22.45
2022-08-28T22:26:13.583Z,28.42
2022-08-28T22:28:15.372Z,31.10
2022-08-28T22:30:17.796Z,28.38
2022-08-28T22:32:22.840Z,29.48
2022-08-28T22:34:24.381Z,30.38
2022-08-28T22:36:29.343Z,30.98
2022-08-28T22:38:31.313Z,29.48
2022-08-28T22:40:33.101Z,35.33
2022-08-28T22:42:34.762Z,29.17
2022-08-28T22:44:39.971Z,28.90
2022-08-28T22:46:41.747Z,31.60
2022-08-28T22:48:43.321Z,35.15
2022-08-28T22:50:46.345Z,36.47
2022-08-28T22:52:49.357Z,39.20
2022-08-28T22:54:52.355Z,43.10
2022-08-28T22:56:54.844Z,44.53
2022-08-28T22:58:56.451Z,43.60
2022-08-28T23:01:01.678Z,41.08
2022-08-28T23:03:03.604Z,37.92
2022-08-28T23:05:05.824Z,40.63
2022-08-28T23:07:07.551Z,39.90
2022-08-28T23:09:09.144Z,38.58
2022-08-28T23:11:11.284Z,38.13
2022-08-28T23:13:14.387Z,34.50
2022-08-28T23:15:18.345Z,32.35
2022-08-28T23:17:19.976Z,29.95
2022-08-28T23:19:21.762Z,30.75
2022-08-28T23:21:26.451Z,28.58
2022-08-28T23:23:28.649Z,32.03
2022-08-28T23:25:30.194Z,29.52
2022-08-28T23:27:36.178Z,32.70
2022-08-28T23:29:38.256Z,31.33
2022-08-28T23:31:40.144Z,30.55
2022-08-28T23:33:41.883Z,30.23
2022-08-28T23:35:43.614Z,29.38
2022-08-28T23:37:48.670Z,31.33
2022-08-28T23:39:53.326Z,33.65
2022-08-28T23:41:56.108Z,34.17
2022-08-28T23:43:57.715Z,30.45
2022-08-28T23:45:59.956Z,34.03
2022-08-28T23:48:01.602Z,42.42
2022-08-28T23:50:06.958Z,34.72
2022-08-28T23:52:08.515Z,34.30
2022-08-28T23:54:11.682Z,40.67
2022-08-28T23:56:13.429Z,43.22
2022-08-28T23:58:15.292Z,47.83
